createdAt,value
2022-11-08T00:02:08.779Z,100831.00
2022-11-08T00:04:35.381Z,100833.44
2022-11-08T00:07:20.520Z,100824.81
2022-11-08T00:10:05.588Z,100824.81
2022-11-08T00:12:50.488Z,100826.06
2022-11-08T00:15:16.943Z,100823.19
2022-11-08T00:17:43.513Z,100812.53
2022-11-08T00:20:10.574Z,100828.09
2022-11-08T00:22:37.028Z,100822.59
2022-11-08T00:25:03.550Z,100827.91
2022-11-08T00:27:30.028Z,100825.66
2022-11-08T00:29:56.547Z,100826.09
2022-11-08T00:32:24.614Z,100825.03
2022-11-08T00:34:51.536Z,100828.34
2022-11-08T00:37:19.184Z,100833.06
2022-11-08T00:39:46.080Z,100828.97
2022-11-08T00:42:12.636Z,100831.81
2022-11-08T00:44:39.274Z,100824.03
2022-11-08T00:47:06.105Z,100822.19
2022-11-08T00:49:32.761Z,100824.44
2022-11-08T00:51:59.224Z,100825.25
2022-11-08T00:54:25.795Z,100821.16
2022-11-08T00:56:52.250Z,100817.47
2022-11-08T00:59:19.475Z,100819.31
2022-11-08T01:01:46.881Z,100812.72
2022-11-08T01:04:17.608Z,100815.22
2022-11-08T01:06:44.114Z,100823.03
2022-11-08T01:09:11.288Z,100812.34
2022-11-08T01:11:38.879Z,100819.75
2022-11-08T01:14:05.536Z,100811.72
2022-11-08T01:16:33.142Z,100810.50
2022-11-08T01:19:00.530Z,100808.03
2022-11-08T01:21:27.444Z,100792.63
2022-11-08T01:23:54.558Z,100800.44
2022-11-08T01:26:26.291Z,100795.91
2022-11-08T01:28:53.683Z,100799.41
2022-11-08T01:31:24.906Z,100788.53
2022-11-08T01:33:52.065Z,100788.31
2022-11-08T01:36:23.632Z,100793.66
2022-11-08T01:38:50.420Z,100783.00
2022-11-08T01:41:17.741Z,100784.41
2022-11-08T01:43:49.004Z,100783.56
2022-11-08T01:46:18.316Z,100780.53
2022-11-08T01:49:09.166Z,100784.81
2022-11-08T01:51:54.325Z,100777.00
2022-11-08T01:54:27.653Z,100770.22
2022-11-08T01:56:54.869Z,100762.84
2022-11-08T01:59:21.510Z,100771.03
2022-11-08T02:01:48.034Z,100771.03
2022-11-08T02:04:15.259Z,100766.56
2022-11-08T02:06:42.723Z,100766.56
2022-11-08T02:09:11.176Z,100750.72
2022-11-08T02:11:38.474Z,100761.22
2022-11-08T02:14:05.036Z,100762.03
2022-11-08T02:16:31.636Z,100755.88
2022-11-08T02:18:58.116Z,100755.66
2022-11-08T02:21:32.674Z,100758.53
2022-11-08T02:24:00.881Z,100759.16
2022-11-08T02:26:35.178Z,100746.44
2022-11-08T02:29:33.823Z,100749.09
2022-11-08T02:32:01.413Z,100751.34
2022-11-08T02:34:29.894Z,100746.44
2022-11-08T02:36:56.702Z,100743.75
2022-11-08T02:39:23.710Z,100731.22
2022-11-08T02:41:50.169Z,100739.84
2022-11-08T02:44:16.689Z,100726.72
2022-11-08T02:46:43.191Z,100742.53
2022-11-08T02:49:09.643Z,100735.53
2022-11-08T02:51:36.104Z,100733.91
2022-11-08T02:54:02.606Z,100733.47
2022-11-08T02:56:29.057Z,100733.72
2022-11-08T02:58:55.586Z,100733.72
2022-11-08T03:01:22.400Z,100731.22
2022-11-08T03:03:48.881Z,100733.28
2022-11-08T03:06:15.491Z,100732.91
2022-11-08T03:08:42.033Z,100727.56
2022-11-08T03:11:08.555Z,100720.38
2022-11-08T03:13:35.041Z,100723.47
2022-11-08T03:16:03.558Z,100722.22
2022-11-08T03:18:30.146Z,100726.34
2022-11-08T03:20:56.634Z,100720.19
2022-11-08T03:23:23.096Z,100727.16
2022-11-08T03:25:49.566Z,100732.72
2022-11-08T03:28:20.234Z,100734.16
2022-11-08T03:30:51.148Z,100734.75
2022-11-08T03:33:17.593Z,100740.72
2022-11-08T03:35:44.073Z,100734.94
2022-11-08T03:38:10.533Z,100735.97
2022-11-08T03:40:37.001Z,100727.34
2022-11-08T03:43:03.458Z,100727.16
2022-11-08T03:45:30.105Z,100728.38
2022-11-08T03:47:56.541Z,100723.06
2022-11-08T03:50:23.007Z,100724.06
2022-11-08T03:52:51.070Z,100728.16
2022-11-08T03:55:18.661Z,100727.53
2022-11-08T03:57:47.078Z,100724.03
2022-11-08T04:00:14.738Z,100719.09
2022-11-08T04:02:41.474Z,100715.44
2022-11-08T04:05:09.832Z,100716.88
2022-11-08T04:07:36.395Z,100713.78
2022-11-08T04:10:04.248Z,100716.03
2022-11-08T04:12:49.284Z,100715.63
2022-11-08T04:15:19.512Z,100718.09
2022-11-08T04:18:06.053Z,100713.97
2022-11-08T04:20:51.164Z,100711.91
2022-11-08T04:23:18.183Z,100716.44
2022-11-08T04:25:45.189Z,100711.91
2022-11-08T04:28:11.766Z,100701.47
2022-11-08T04:30:38.264Z,100705.16
2022-11-08T04:33:05.022Z,100708.25
2022-11-08T04:35:31.770Z,100697.59
2022-11-08T04:38:02.254Z,100702.53
2022-11-08T04:40:30.604Z,100697.59
2022-11-08T04:42:57.078Z,100698.44
2022-11-08T04:45:23.539Z,100692.06
2022-11-08T04:47:49.993Z,100692.47
2022-11-08T04:50:16.566Z,100681.22
2022-11-08T04:52:43.658Z,100690.22
2022-11-08T04:55:10.299Z,100686.53
2022-11-08T04:57:36.787Z,100682.84
2022-11-08T05:00:04.239Z,100681.81
2022-11-08T05:02:30.870Z,100684.06
2022-11-08T05:04:57.786Z,100679.13
2022-11-08T05:07:24.302Z,100680.78
2022-11-08T05:09:50.783Z,100683.03
2022-11-08T05:12:17.227Z,100678.31
2022-11-08T05:14:43.733Z,100674.22
2022-11-08T05:17:10.250Z,100671.34
2022-11-08T05:19:55.372Z,100673.41
2022-11-08T05:22:40.269Z,100671.34
2022-11-08T05:25:06.978Z,100668.25
2022-11-08T05:27:34.269Z,100668.25
2022-11-08T05:30:01.184Z,100663.53
2022-11-08T05:32:27.632Z,100661.88
2022-11-08T05:34:54.087Z,100658.00
2022-11-08T05:37:20.583Z,100653.69
2022-11-08T05:39:47.183Z,100655.72
2022-11-08T05:42:13.638Z,100653.72
2022-11-08T05:44:40.107Z,100654.53
2022-11-08T05:47:06.598Z,100645.50
2022-11-08T05:49:33.052Z,100649.38
2022-11-08T05:51:59.770Z,100641.78
2022-11-08T05:54:26.234Z,100641.78
2022-11-08T05:56:52.677Z,100647.94
2022-11-08T05:59:19.151Z,100640.56
2022-11-08T06:01:45.615Z,100635.44
2022-11-08T06:04:12.180Z,100632.53
2022-11-08T06:06:38.633Z,100637.28
2022-11-08T06:09:05.148Z,100638.91
2022-11-08T06:11:31.611Z,100637.06
2022-11-08T06:13:58.266Z,100633.56
2022-11-08T06:16:25.441Z,100631.31
2022-11-08T06:18:52.125Z,100643.22
2022-11-08T06:21:20.369Z,100644.25
2022-11-08T06:23:47.166Z,100641.56
2022-11-08T06:26:13.677Z,100636.47
2022-11-08T06:28:40.171Z,100643.22
2022-11-08T06:31:06.643Z,100631.75
2022-11-08T06:33:33.417Z,100634.78
2022-11-08T06:36:00.137Z,100628.03
2022-11-08T06:38:26.624Z,100631.50
2022-11-08T06:40:53.178Z,100637.84
2022-11-08T06:43:20.383Z,100632.53
2022-11-08T06:45:47.478Z,100634.38
2022-11-08T06:48:13.985Z,100638.47
2022-11-08T06:50:41.754Z,100640.50
2022-11-08T06:53:10.209Z,100637.25
2022-11-08T06:55:36.681Z,100637.06
2022-11-08T06:58:05.472Z,100634.38
2022-11-08T07:00:32.047Z,100639.72
2022-11-08T07:03:03.561Z,100630.09
2022-11-08T07:05:31.483Z,100627.00
2022-11-08T07:07:58.708Z,100629.44
2022-11-08T07:10:27.864Z,100628.22
2022-11-08T07:12:59.722Z,100626.59
2022-11-08T07:15:26.173Z,100625.34
2022-11-08T07:17:52.672Z,100629.03
2022-11-08T07:20:19.132Z,100624.13
2022-11-08T07:22:45.609Z,100625.97
2022-11-08T07:25:12.069Z,100622.53
2022-11-08T07:27:38.529Z,100621.69
2022-11-08T07:30:05.954Z,100608.38
2022-11-08T07:32:32.419Z,100603.22
2022-11-08T07:34:58.913Z,100604.06
2022-11-08T07:37:25.362Z,100594.63
2022-11-08T07:39:51.821Z,100602.41
2022-11-08T07:42:18.274Z,100606.91
2022-11-08T07:44:44.777Z,100606.13
2022-11-08T07:47:11.250Z,100608.34
2022-11-08T07:49:37.695Z,100608.97
2022-11-08T07:52:04.220Z,100616.78
2022-11-08T07:54:30.669Z,100615.31
2022-11-08T07:56:57.131Z,100622.34
2022-11-08T07:59:23.586Z,100624.97
2022-11-08T08:01:50.121Z,100623.94
2022-11-08T08:04:16.673Z,100610.81
2022-11-08T08:06:43.138Z,100603.84
2022-11-08T08:09:09.596Z,100605.88
2022-11-08T08:11:36.049Z,100602.41
2022-11-08T08:14:02.502Z,100601.59
2022-11-08T08:16:28.966Z,100601.59
2022-11-08T08:18:56.832Z,100599.94
2022-11-08T08:21:23.567Z,100598.72
2022-11-08T08:23:50.015Z,100604.44
2022-11-08T08:26:16.482Z,100580.41
2022-11-08T08:28:42.983Z,100574.38
2022-11-08T08:31:09.600Z,100575.38
2022-11-08T08:33:37.707Z,100567.97
2022-11-08T08:36:04.729Z,100551.28
2022-11-08T08:38:32.671Z,100543.19
2022-11-08T08:40:59.315Z,100544.63
2022-11-08T08:43:27.505Z,100528.22
2022-11-08T08:45:54.580Z,100539.06
2022-11-08T08:48:21.032Z,100537.28
2022-11-08T08:50:48.177Z,100541.69
2022-11-08T08:53:14.863Z,100545.66
2022-11-08T08:55:42.882Z,100542.03
2022-11-08T08:58:10.818Z,100533.41
2022-11-08T09:03:24.073Z,100540.41
2022-11-08T09:05:50.637Z,100518.19
2022-11-08T09:08:17.093Z,100513.63
2022-11-08T09:10:43.593Z,100512.22
2022-11-08T09:13:10.326Z,100508.50
2022-11-08T09:15:36.805Z,100507.16
2022-11-08T09:18:03.408Z,100503.00
2022-11-08T09:20:29.906Z,100503.16
2022-11-08T09:22:58.364Z,100498.53
2022-11-08T09:25:24.819Z,100500.56
2022-11-08T09:27:54.293Z,100497.94
2022-11-08T09:30:20.806Z,100490.72
2022-11-08T09:33:00.395Z,100484.13
2022-11-08T09:35:28.366Z,100484.13
2022-11-08T09:37:55.018Z,100480.19
2022-11-08T09:40:32.659Z,100475.75
2022-11-08T09:43:12.304Z,100475.50
2022-11-08T09:45:46.805Z,100463.59
2022-11-08T09:48:30.141Z,100463.19
2022-11-08T09:50:57.665Z,100463.97
2022-11-08T09:53:47.739Z,100455.38
2022-11-08T09:56:23.950Z,100457.78
2022-11-08T09:59:01.912Z,100449.94
2022-11-08T10:01:34.021Z,100438.44
2022-11-08T10:04:05.586Z,100441.78
2022-11-08T10:06:32.059Z,100434.41
2022-11-08T10:09:21.798Z,100438.72
2022-11-08T10:11:57.368Z,100426.72
2022-11-08T10:14:54.336Z,100426.06
2022-11-08T10:17:34.539Z,100412.84
2022-11-08T10:20:10.981Z,100418.72
2022-11-08T10:22:54.612Z,100393.69
2022-11-08T10:25:26.999Z,100386.88
2022-11-08T10:27:56.566Z,100382.78
2022-11-08T10:30:27.667Z,100381.59
2022-11-08T10:32:55.176Z,100382.13
2022-11-08T10:35:41.867Z,100374.59
2022-11-08T10:38:24.640Z,100352.19
2022-11-08T10:40:57.301Z,100353.16
2022-11-08T10:43:34.138Z,100332.06
2022-11-08T10:46:00.801Z,100317.84
2022-11-08T10:48:27.647Z,100306.91
2022-11-08T10:50:55.533Z,100296.44
2022-11-08T10:53:29.039Z,100296.28
2022-11-08T10:56:04.147Z,100287.84
2022-11-08T10:58:32.077Z,100293.78
2022-11-08T11:01:16.027Z,100291.53
2022-11-08T11:03:42.931Z,100290.88
2022-11-08T11:06:32.518Z,100281.25
2022-11-08T11:09:02.697Z,100276.44
2022-11-08T11:11:31.993Z,100265.75
2022-11-08T11:14:16.373Z,100257.38
2022-11-08T11:16:57.370Z,100253.13
2022-11-08T11:19:25.480Z,100252.00
2022-11-08T11:22:02.598Z,100261.22
2022-11-08T11:24:29.330Z,100255.38
2022-11-08T11:27:19.226Z,100255.25
2022-11-08T11:29:45.674Z,100268.13
2022-11-08T11:32:32.926Z,100266.78
2022-11-08T11:35:07.418Z,100232.81
2022-11-08T11:37:44.716Z,100245.94
2022-11-08T11:40:35.658Z,100238.25
2022-11-08T11:43:23.384Z,100237.88
2022-11-08T11:45:54.899Z,100222.81
2022-11-08T11:48:32.336Z,100219.06
2022-11-08T11:50:59.041Z,100218.97
2022-11-08T11:53:26.993Z,100212.69
2022-11-08T11:56:06.857Z,100205.47
2022-11-08T11:58:41.018Z,100212.22
2022-11-08T12:01:34.059Z,100204.88
2022-11-08T12:04:16.413Z,100204.16
2022-11-08T12:07:05.590Z,100191.59
2022-11-08T12:09:53.979Z,100186.94
2022-11-08T12:12:32.799Z,100188.25
2022-11-08T12:15:08.239Z,100208.47
2022-11-08T12:17:38.325Z,100202.81
2022-11-08T12:20:26.657Z,100185.81
2022-11-08T12:23:22.069Z,100147.84
2022-11-08T12:26:02.280Z,100132.00
2022-11-08T12:28:44.095Z,100091.38
2022-11-08T12:31:42.626Z,100100.84
2022-11-08T12:34:19.663Z,100137.38
2022-11-08T12:37:10.913Z,100127.03
2022-11-08T12:40:03.888Z,100124.56
2022-11-08T12:42:39.280Z,100143.09
2022-11-08T12:45:30.214Z,100142.41
2022-11-08T12:48:11.725Z,100149.72
2022-11-08T12:50:58.917Z,100135.16
2022-11-08T12:53:31.585Z,100128.50
2022-11-08T12:55:58.393Z,100130.69
2022-11-08T12:58:34.792Z,100130.97
2022-11-08T13:01:05.887Z,100136.16
2022-11-08T13:03:49.241Z,100144.13
2022-11-08T13:06:27.097Z,100159.28
2022-11-08T13:09:08.887Z,100160.78
2022-11-08T13:11:36.774Z,100165.31
2022-11-08T13:14:04.035Z,100159.84
2022-11-08T13:16:42.168Z,100170.75
2022-11-08T13:19:26.552Z,100179.38
2022-11-08T13:21:53.074Z,100193.78
2022-11-08T13:27:40.808Z,100205.53
2022-11-08T13:30:16.392Z,100200.50
2022-11-08T13:32:42.739Z,100200.03
2022-11-08T13:35:13.365Z,100199.47
2022-11-08T13:37:57.332Z,100175.00
2022-11-08T13:40:24.689Z,100173.97
2022-11-08T13:43:31.928Z,100169.28
2022-11-08T13:46:20.395Z,100175.19
2022-11-08T13:49:07.288Z,100176.13
2022-11-08T13:51:41.509Z,100178.19
2022-11-08T13:54:23.341Z,100177.16
2022-11-08T13:56:53.413Z,100164.75
2022-11-08T13:59:32.318Z,100153.94
2022-11-08T14:02:00.688Z,100158.94
2022-11-08T14:04:36.849Z,100148.59
2022-11-08T14:07:23.828Z,100154.53
2022-11-08T14:10:04.377Z,100160.56
2022-11-08T14:12:30.775Z,100149.28
2022-11-08T14:15:15.445Z,100140.22
2022-11-08T14:17:47.878Z,100148.25
2022-11-08T14:20:32.240Z,100148.03
2022-11-08T14:23:09.405Z,100148.38
2022-11-08T14:25:36.066Z,100172.59
2022-11-08T14:28:02.573Z,100176.25
2022-11-08T14:30:29.021Z,100174.03
2022-11-08T14:33:16.900Z,100166.84
2022-11-08T14:35:51.460Z,100178.91
2022-11-08T14:38:23.058Z,100170.09
2022-11-08T14:40:52.195Z,100159.97
2022-11-08T14:43:20.130Z,100164.75
2022-11-08T14:45:47.124Z,100165.88
2022-11-08T14:48:22.507Z,100166.84
2022-11-08T14:50:48.956Z,100169.47
2022-11-08T14:53:22.891Z,100185.97
2022-11-08T14:55:56.386Z,100177.16
2022-11-08T14:58:22.843Z,100189.91
2022-11-08T15:00:49.764Z,100197.00
2022-11-08T15:03:18.573Z,100196.59
2022-11-08T15:05:47.974Z,100196.69
2022-11-08T15:08:33.719Z,100197.16
2022-11-08T15:11:30.522Z,100190.44
2022-11-08T15:14:03.599Z,100186.00
2022-11-08T15:16:40.768Z,100191.56
2022-11-08T15:19:34.293Z,100189.69
2022-11-08T15:22:02.846Z,100189.69
2022-11-08T15:24:37.884Z,100189.34
2022-11-08T15:27:10.308Z,100202.91
2022-11-08T15:30:00.523Z,100190.06
2022-11-08T15:32:27.688Z,100199.56
2022-11-08T15:34:55.794Z,100201.13
2022-11-08T15:37:39.277Z,100194.81
2022-11-08T15:40:28.156Z,100200.69
2022-11-08T15:42:54.796Z,100199.44
2022-11-08T15:45:28.714Z,100195.34
2022-11-08T15:48:11.614Z,100188.34
2022-11-08T15:50:38.321Z,100186.13
2022-11-08T15:53:05.308Z,100185.03
2022-11-08T15:55:36.599Z,100183.63
2022-11-08T15:58:03.367Z,100178.06
2022-11-08T16:00:32.068Z,100177.94
2022-11-08T16:02:58.793Z,100169.38
2022-11-08T16:05:27.044Z,100170.66
2022-11-08T16:07:53.918Z,100176.56
2022-11-08T16:10:27.368Z,100173.44
2022-11-08T16:12:53.869Z,100178.19
2022-11-08T16:15:21.904Z,100163.00
2022-11-08T16:17:48.472Z,100171.63
2022-11-08T16:20:29.598Z,100172.09
2022-11-08T16:22:57.599Z,100178.38
2022-11-08T16:25:26.013Z,100172.44
2022-11-08T16:28:08.567Z,100168.28
2022-11-08T16:30:35.356Z,100162.38
2022-11-08T16:33:02.321Z,100156.56
2022-11-08T16:35:28.794Z,100164.44
2022-11-08T16:37:55.264Z,100163.97
2022-11-08T16:40:23.526Z,100167.72
2022-11-08T16:42:51.959Z,100165.25
2022-11-08T16:45:37.244Z,100172.25
2022-11-08T16:48:07.173Z,100170.84
2022-11-08T16:50:33.640Z,100159.44
2022-11-08T16:53:00.086Z,100163.75
2022-11-08T16:55:26.540Z,100163.41
2022-11-08T16:57:52.977Z,100161.44
2022-11-08T17:00:20.025Z,100171.06
2022-11-08T17:02:51.672Z,100166.22
2022-11-08T17:05:23.309Z,100169.31
2022-11-08T17:07:51.123Z,100167.34
2022-11-08T17:10:23.196Z,100170.00
2022-11-08T17:12:50.181Z,100175.22
2022-11-08T17:15:22.213Z,100183.84
2022-11-08T17:17:49.045Z,100176.63
2022-11-08T17:20:16.970Z,100176.41
2022-11-08T17:22:44.502Z,100174.63
2022-11-08T17:25:12.258Z,100184.66
2022-11-08T17:27:38.912Z,100189.56
2022-11-08T17:30:06.457Z,100188.97
2022-11-08T17:32:34.520Z,100183.50
2022-11-08T17:35:03.649Z,100194.72
2022-11-08T17:37:31.074Z,100188.81
2022-11-08T17:39:57.774Z,100193.44
2022-11-08T17:42:24.827Z,100208.28
2022-11-08T17:44:54.376Z,100203.78
2022-11-08T17:47:21.019Z,100203.44
2022-11-08T17:49:47.650Z,100210.03
2022-11-08T17:52:14.500Z,100204.09
2022-11-08T17:54:41.032Z,100220.22
2022-11-08T17:57:07.685Z,100224.16
2022-11-08T17:59:34.339Z,100229.50
2022-11-08T18:02:00.992Z,100235.44
2022-11-08T18:04:28.130Z,100235.16
2022-11-08T18:06:54.953Z,100241.97
2022-11-08T18:09:21.683Z,100231.63
2022-11-08T18:11:48.254Z,100230.69
2022-11-08T18:14:22.008Z,100230.69
2022-11-08T18:16:52.534Z,100234.03
2022-11-08T18:19:19.579Z,100233.66
2022-11-08T18:21:46.285Z,100234.47
2022-11-08T18:24:12.948Z,100224.44
2022-11-08T18:26:39.474Z,100225.78
2022-11-08T18:29:06.465Z,100221.34
2022-11-08T18:31:33.142Z,100227.06
2022-11-08T18:33:59.817Z,100227.47
2022-11-08T18:36:29.798Z,100226.25
2022-11-08T18:38:59.143Z,100224.59
2022-11-08T18:41:28.540Z,100217.63
2022-11-08T18:43:56.000Z,100224.38
2022-11-08T18:46:24.025Z,100225.00
2022-11-08T18:48:50.702Z,100212.59
2022-11-08T18:51:18.894Z,100211.63
2022-11-08T18:53:45.416Z,100205.97
2022-11-08T18:56:12.652Z,100198.56
2022-11-08T18:58:39.192Z,100195.22
2022-11-08T19:01:06.174Z,100201.50
2022-11-08T19:03:33.863Z,100193.16
2022-11-08T19:06:00.372Z,100195.88
2022-11-08T19:08:28.519Z,100201.22
2022-11-08T19:10:56.992Z,100190.34
2022-11-08T19:13:25.394Z,100188.09
2022-11-08T19:15:59.167Z,100185.41
2022-11-08T19:18:26.426Z,100189.16
2022-11-08T19:21:04.909Z,100175.13
2022-11-08T19:23:32.048Z,100174.06
2022-11-08T19:26:00.864Z,100163.25
2022-11-08T19:28:32.674Z,100167.78
2022-11-08T19:30:59.991Z,100175.72
2022-11-08T19:33:29.102Z,100180.25
2022-11-08T19:35:59.998Z,100182.41
2022-11-08T19:38:26.542Z,100177.13
2022-11-08T19:40:53.012Z,100169.44
2022-11-08T19:43:19.727Z,100174.47
2022-11-08T19:45:52.590Z,100190.25
2022-11-08T19:48:19.520Z,100187.22
2022-11-08T19:50:46.769Z,100187.06
2022-11-08T19:53:14.469Z,100183.19
2022-11-08T19:55:40.963Z,100187.13
2022-11-08T19:58:07.900Z,100190.81
2022-11-08T20:00:34.689Z,100193.63
2022-11-08T20:03:01.678Z,100189.84
2022-11-08T20:05:28.253Z,100197.31
2022-11-08T20:08:16.108Z,100193.72
2022-11-08T20:10:42.782Z,100196.22
2022-11-08T20:13:09.501Z,100206.72
2022-11-08T20:15:41.886Z,100208.81
2022-11-08T20:18:10.844Z,100208.22
2022-11-08T20:20:41.444Z,100205.53
2022-11-08T20:23:15.039Z,100204.84
2022-11-08T20:25:41.420Z,100216.53
2022-11-08T20:28:07.976Z,100211.56
2022-11-08T20:30:43.416Z,100206.41
2022-11-08T20:33:09.850Z,100209.47
2022-11-08T20:35:36.463Z,100205.25
2022-11-08T20:38:02.910Z,100209.72
2022-11-08T20:40:29.395Z,100197.19
2022-11-08T20:42:55.854Z,100196.16
2022-11-08T20:45:22.314Z,100194.38
2022-11-08T20:47:51.569Z,100199.72
2022-11-08T20:50:18.047Z,100206.72
2022-11-08T20:52:44.579Z,100199.56
2022-11-08T20:55:11.106Z,100203.41
2022-11-08T20:57:37.648Z,100202.59
2022-11-08T21:00:13.059Z,100206.66
2022-11-08T21:02:43.414Z,100209.22
2022-11-08T21:05:09.983Z,100210.59
2022-11-08T21:13:09.561Z,100204.66
2022-11-08T21:15:36.210Z,100199.72
2022-11-08T21:18:02.780Z,100194.38
2022-11-08T21:20:29.447Z,100196.81
2022-11-08T21:22:55.907Z,100202.47
2022-11-08T21:25:22.975Z,100196.31
2022-11-08T21:27:49.420Z,100197.19
2022-11-08T21:30:15.886Z,100199.56
2022-11-08T21:32:42.339Z,100215.81
2022-11-08T21:35:09.131Z,100210.88
2022-11-08T21:37:35.588Z,100220.94
2022-11-08T21:40:02.110Z,100221.66
2022-11-08T21:42:28.648Z,100214.00
2022-11-08T21:44:55.113Z,100209.94
2022-11-08T21:47:21.674Z,100205.41
2022-11-08T21:49:48.221Z,100203.94
2022-11-08T21:52:14.657Z,100200.97
2022-11-08T21:54:41.119Z,100197.84
2022-11-08T21:57:07.585Z,100201.94
2022-11-08T21:59:34.029Z,100190.00
2022-11-08T22:02:00.591Z,100204.16
2022-11-08T22:04:27.042Z,100191.25
2022-11-08T22:06:53.624Z,100185.41
2022-11-08T22:09:20.104Z,100184.50
2022-11-08T22:11:46.566Z,100197.25
2022-11-08T22:14:13.018Z,100204.06
2022-11-08T22:16:39.469Z,100191.75
2022-11-08T22:19:06.375Z,100202.78
2022-11-08T22:21:39.950Z,100193.22
2022-11-08T22:24:15.023Z,100199.00
2022-11-08T22:26:41.877Z,100206.09
2022-11-08T22:29:08.526Z,100212.03
2022-11-08T22:31:35.285Z,100214.69
2022-11-08T22:34:02.269Z,100213.81
2022-11-08T22:36:28.959Z,100215.44
2022-11-08T22:38:55.865Z,100211.97
2022-11-08T22:41:22.998Z,100206.94
2022-11-08T22:43:49.965Z,100209.41
2022-11-08T22:46:17.089Z,100217.78
2022-11-08T22:48:43.947Z,100215.50
2022-11-08T22:51:10.408Z,100208.25
2022-11-08T22:53:37.101Z,100209.78
2022-11-08T22:56:09.747Z,100216.16
2022-11-08T22:58:37.668Z,100218.44
2022-11-08T23:01:04.501Z,100207.81
2022-11-08T23:03:30.952Z,100205.75
2022-11-08T23:05:58.027Z,100215.09
2022-11-08T23:08:25.495Z,100211.88
2022-11-08T23:11:10.616Z,100198.72
2022-11-08T23:13:56.133Z,100203.38
2022-11-08T23:16:32.120Z,100201.97
2022-11-08T23:19:20.830Z,100195.50
2022-11-08T23:22:06.298Z,100201.41
2022-11-08T23:24:32.834Z,100203.22
2022-11-08T23:27:18.829Z,100197.81
2022-11-08T23:30:03.972Z,100195.88
2022-11-08T23:32:30.496Z,100187.09
2022-11-08T23:34:57.027Z,100195.13
2022-11-08T23:37:23.620Z,100198.19
2022-11-08T23:40:08.665Z,100200.22
2022-11-08T23:42:53.985Z,100194.88
2022-11-08T23:45:20.613Z,100202.13
2022-11-08T23:47:47.082Z,100192.16
2022-11-08T23:50:13.535Z,100189.28
2022-11-08T23:52:40.454Z,100186.63
2022-11-08T23:55:07.358Z,100191.28
2022-11-08T23:57:33.821Z,100187.72
